Flight Track Log - Related Links

Times and Time Zones

All times are in EDT time to prevent confusion due to time zone crossing. See the EJA929 flight status page for this flight to view local times or setup timezone preferences in your user account.

Time Position Orientation Groundspeed Altitude Reporting Facility
EDT Latitude Longitude Course Direction KTS MPH feet Rate Location/Type
Sun 02:14:00 PM 18.5989 -68.3857 326° Northwest  Level FlightAware Approximate
Sun 02:15:00 PM 18.6992 -68.4577 325° Northwest  Level FlightAware Approximate
Sun 02:15:54 PM 19.1889 -69.4517 293° West 495 570 29,200  Level Miami Center
Sun 02:16:00 PM 18.7971 -68.5304 317° Northwest  Level FlightAware Approximate
Sun 02:16:54 PM 19.2858 -69.5233 325° Northwest 462 532 30,700  Level Miami Center
Sun 02:17:00 PM 18.8842 -68.6173 325° Northwest  Level FlightAware Approximate
Sun 02:17:54 PM 19.3806 -69.5931 325° Northwest 429 494 32,300  Level Miami Center
Sun 02:18:00 PM 18.9820 -68.6907 325° Northwest  Level FlightAware Approximate
Sun 02:18:54 PM 19.4733 -69.6628 325° Northwest 416 479 33,900  Level Miami Center
Sun 02:19:00 PM 19.0730 -68.7729 317° Northwest  Level FlightAware Approximate
Sun 02:19:54 PM 19.5578 -69.7353 321° Northwest 404 465 35,500  Level Miami Center
Sun 02:20:00 PM 19.1477 -68.8692 293° West  Level FlightAware Approximate
Sun 02:20:54 PM 19.6464 -69.8056 323° Northwest 399 459 36,900  Level Miami Center
Sun 02:21:54 PM 19.7367 -69.8714 326° Northwest 399 459 38,300 1,033 Climbing Miami Center
Sun 02:23:54 PM 19.9133 -70.0081 324° Northwest 399 459 40,000 567 Climbing Miami Center
Sun 02:24:54 PM 20.0061 -70.0828 323° Northwest 410 472 40,000  Level Miami Center
Sun 02:25:54 PM 20.1053 -70.1572 325° Northwest 423 487 40,000  Level Miami Center
Sun 02:27:54 PM 20.3097 -70.3153 327° Northwest 452 520 40,000  Level Miami Center
Sun 02:28:54 PM 20.4397 -70.3356 352° North 459 528 40,000  Level Miami Center
Sun 02:29:54 PM 20.5792 -70.3267 North 466 536 40,000  Level Miami Center
Sun 02:30:54 PM 20.7183 -70.3178 North 485 558 40,000  Level Miami Center
Sun 02:31:54 PM 20.8597 -70.3111 North 496 571 40,000  Level Miami Center
Sun 02:32:54 PM 21.0011 -70.3022 North 501 577 40,000  Level Miami Center
Sun 02:33:54 PM 21.1425 -70.2953 North 501 577 40,000  Level Miami Center
Sun 02:34:54 PM 21.2881 -70.2861 North 501 577 40,000  Level Miami Center
Sun 02:35:54 PM 21.4272 -70.2769 North 506 582 40,000  Level Miami Center
Sun 02:36:54 PM 21.5708 -70.2700 North 512 589 40,000  Level Miami Center
Sun 02:37:54 PM 21.7122 -70.2586 North 512 589 40,000  Level Miami Center
Sun 02:38:54 PM 21.8536 -70.2514 North 512 589 40,000  Level Miami Center
Sun 02:39:54 PM 21.9950 -70.2422 North 507 583 40,000  Level Miami Center
Sun 02:40:54 PM 22.1364 -70.2328 North 507 583 40,000  Level Miami Center
Sun 02:41:54 PM 22.2758 -70.2258 North 512 589 40,000  Level Miami Center
Sun 02:42:54 PM 22.4194 -70.2164 North 512 589 40,000  Level Miami Center
Sun 02:43:54 PM 22.5631 -70.2114 North 512 589 40,000  Level Miami Center
Sun 02:44:54 PM 22.7022 -70.2019 North 512 589 40,000  Level Miami Center
Sun 02:45:54 PM 22.8439 -70.1925 North 512 589 40,000  Level Miami Center
Sun 02:46:54 PM 22.9831 -70.1831 North 506 582 40,000  Level Miami Center
Sun 02:47:54 PM 23.1247 -70.1778 North 506 582 40,000  Level Miami Center
Sun 02:48:54 PM 23.2639 -70.1639 North 506 582 40,000  Level Miami Center
Sun 02:49:54 PM 23.4056 -70.1586 North 506 582 40,000  Level Miami Center
Sun 02:50:54 PM 23.5469 -70.1467 North 506 582 40,000  Level Miami Center
Sun 02:51:54 PM 23.6883 -70.1392 North 501 577 40,000  Level Miami Center
Sun 02:52:54 PM 23.8300 -70.1317 North 506 582 40,000  Level Miami Center
Sun 02:53:54 PM 23.9736 -70.1239 North 506 582 40,000  Level Miami Center
Sun 02:54:54 PM 24.1128 -70.1097 North 506 582 40,000  Level Miami Center
Sun 02:55:54 PM 24.2542 -70.1019 North 506 582 40,000  Level Miami Center
Sun 02:56:54 PM 24.3978 -70.0942 North 511 588 40,000  Level Miami Center
Sun 02:57:54 PM 24.5394 -70.0867 North 511 588 40,000  Level Miami Center
Sun 02:58:54 PM 24.6786 -70.0742 North 511 588 40,000  Level Miami Center
Sun 02:59:54 PM 24.8200 -70.0642 North 511 588 40,000  Level Miami Center
Sun 03:00:54 PM 24.9617 -70.0564 North 511 588 40,000  Level Miami Center
Sun 03:01:54 PM 25.0983 -70.0808 351° North 511 588 40,000  Level Miami Center
Sun 03:04:52 PM 25.0000 -70.0500 348° North 510 587 40,000  Level New York Oceanic (ODAPS)
Sun 03:32:56 PM 28.9000 -70.9833 348° North 467 537 40,000  Level New York Oceanic (ODAPS)
Sun 04:16:04 PM 34.5492 -72.3581 349° North 492 566 40,000  Level New York Center
Sun 04:17:00 PM 34.9013 -72.3689 349° North  Level FlightAware Approximate
Sun 04:17:04 PM 34.6783 -72.3708 355° North 462 532 40,000  Level New York Center
Sun 04:18:04 PM 34.8033 -72.3836 355° North 462 532 40,000  Level New York Center
Sun 04:19:04 PM 34.9322 -72.3989 354° North 455 524 40,000  Level New York Center
Sun 04:20:04 PM 35.0594 -72.4117 355° North 455 524 40,000  Level New York Center
Sun 04:21:04 PM 35.1867 -72.4092 North 460 529 40,000  Level New York Center
Sun 04:22:04 PM 35.3161 -72.4069 North 453 521 40,000  Level New York Center
Sun 04:23:04 PM 35.4392 -72.4094 359° North 458 527 40,000  Level New York Center
Sun 04:24:04 PM 35.5686 -72.4072 North 458 527 40,000  Level New York Center
Sun 04:25:04 PM 35.7000 -72.4050 North 458 527 40,000  Level New York Center
Sun 04:26:04 PM 35.8272 -72.4025 North 463 533 40,000  Level New York Center
Sun 04:27:04 PM 35.9567 -72.4028 360° North 460 529 40,000  Level New York Center
Sun 04:28:04 PM 36.0861 -72.4006 North 453 521 40,000  Level New York Center
Sun 04:29:04 PM 36.2153 -72.4006 360° North 463 533 40,000  Level New York Center
Sun 04:30:04 PM 36.3447 -72.3983 North 463 533 40,000  Level New York Center
Sun 04:31:04 PM 36.4825 -72.3961 North 467 537 40,000  Level New York Center
Sun 04:32:04 PM 36.6075 -72.3989 359° North 467 537 40,000  Level New York Center
Sun 04:33:04 PM 36.7369 -72.3964 North 467 537 40,000  Level New York Center
Sun 04:34:04 PM 36.8664 -72.3942 North 460 529 40,000  Level New York Center
Sun 04:35:04 PM 36.9997 -72.3944 360° North 455 524 40,000  Level New York Center
Sun 04:36:04 PM 37.1147 -72.3944 360° North 444 511 40,000  Level New York Center
Sun 04:37:04 PM 37.2378 -72.3894 North 438 504 40,000  Level New York Center
Sun 04:38:05 PM 37.3608 -72.3922 359° North 438 504 40,000  Level New York Center
Sun 04:39:04 PM 37.4861 -72.3869 North 438 504 40,000  Level New York Center
Sun 04:40:04 PM 37.6069 -72.3869 360° North 438 504 40,000  Level New York Center
Sun 04:41:04 PM 37.7300 -72.3925 358° North 414 476 40,000  Level New York Center
Sun 04:42:04 PM 37.8553 -72.3847 North 420 483 40,000  Level New York Center
Sun 04:43:04 PM 37.9831 -72.3508 12° North 441 507 40,000  Level New York Center
Sun 04:44:04 PM 38.1067 -72.3139 13° North 455 524 40,000  Level New York Center
Sun 04:45:04 PM 38.2300 -72.2822 11° North 455 524 40,000  Level New York Center
Sun 04:46:04 PM 38.3578 -72.2503 11° North 450 518 40,000  Level New York Center
Sun 04:47:04 PM 38.4828 -72.2425 North 450 518 40,000  Level New York Center
Sun 04:48:04 PM 38.6081 -72.2503 357° North 445 512 40,000  Level New York Center
Sun 04:49:04 PM 38.7353 -72.2478 North 445 512 40,000  Level New York Center
Sun 04:50:04 PM 38.8603 -72.2556 357° North 445 512 40,000  Level New York Center
Sun 04:51:04 PM 38.9894 -72.2611 358° North 450 518 40,000 -100 Level New York Center
Sun 04:52:04 PM 39.1144 -72.2636 359° North 450 518 39,800 -1,442 Descending New York Center
Sun 04:54:32 PM 39.4200 -72.2711 359° North 454 522 35,000 -1,943 Descending Boston Center
Sun 04:55:34 PM 39.5419 -72.2747 359° North 444 511 33,000 -1,951 Descending Boston Center
Sun 04:56:35 PM 39.6619 -72.2797 358° North 434 499 31,000 -2,195 Descending Boston Center
Sun 04:57:37 PM 39.8117 -72.2831 359° North 448 516 28,500 -1,463 Descending Boston Center
Sun 04:58:38 PM 39.9314 -72.2867 359° North 436 502 28,000 -246 Descending Boston Center
Sun 04:59:39 PM 40.0517 -72.2914 358° North 432 497 28,000 -439 Level Boston Center
Sun 05:00:41 PM 40.1719 -72.2942 359° North 433 498 27,100 -1,317 Descending Boston Center
Sun 05:01:42 PM 40.2894 -72.2975 359° North 437 503 25,300 -1,820 Descending Boston Center
Sun 05:02:43 PM 40.4117 -72.3014 359° North 440 506 23,400 -1,854 Descending Boston Center
Sun 05:03:45 PM 40.5297 -72.3056 358° North 431 496 21,500 -2,049 Descending Boston Center
Sun 05:04:46 PM 40.6661 -72.3094 359° North 415 478 19,200 -1,854 Descending Boston Center
Sun 05:05:48 PM 40.7775 -72.2825 10° North 401 461 17,700 -1,073 Descending Boston Center
Sun 05:06:49 PM 40.8808 -72.2458 15° North 393 452 17,000 -341 Descending Boston Center
Sun 05:07:51 PM 40.9881 -72.2061 16° North 401 461 17,000 49 Level Boston Center
Sun 05:08:52 PM 41.0953 -72.1692 15° North 402 463 17,100 49 Climbing Boston Center
Sun 05:09:54 PM 41.2025 -72.1300 15° North 403 464 17,100 -49 Level Boston Center
Sun 05:10:55 PM 41.3244 -72.0853 15° North 402 463 17,000 -49 Descending Boston Center
Sun 05:11:57 PM 41.4456 -72.0742 North 403 464 17,000 -927 Level Boston Center
Sun 05:12:58 PM 41.5542 -72.0669 North 396 456 15,100 -1,871 Descending Boston Center
Sun 05:13:30 PM 41.6106 -72.0628 North 378 435 14,100 -1,935 Descending Boston Center
Sun 05:14:00 PM 41.6589 -72.0594 North 382 440 13,100 -1,500 Descending Boston Center
Sun 05:15:38 PM 41.8331 -72.0481 352° North 369 425 10,900 -1,366 Descending Boston Center
Sun 05:16:03 PM 41.8722 -72.0456 North 357 411 10,300 -984 Descending Boston Center
Sun 05:16:39 PM 41.9200 -72.0439 North 278 320 9,900 -1,423 Descending Boston Center
Sun 05:17:40 PM 41.9964 -72.0386 North 267 307 8,000 -1,931 Descending Boston Center
Sun 05:18:06 PM 42.0242 -72.0364 North 267 307 7,100 -1,869 Descending Boston Center
Sun 05:18:41 PM 42.0564 -72.0075 34° Northeast 248 285 6,100 -1,869 Descending Boston Center
Sun 05:19:07 PM 42.0739 -71.9694 58° Northeast 252 290 5,200 -1,612 Descending Boston Center
Sun 05:19:48 PM 42.0972 -71.9178 59° Northeast 242 278 4,300 -1,065 Descending Boston Center
Sun 05:20:09 PM 42.1097 -71.8939 55° Northeast 246 283 4,100 -984 Descending Boston Center
Sun 05:20:49 PM 42.1306 -71.8453 60° Northeast 229 264 3,300 -984 Descending Boston Center
Sun 05:21:10 PM 42.1422 -71.8214 57° Northeast 231 266 3,100 -492 Descending Boston Center
Sun 05:21:50 PM 42.1764 -71.7975 27° Northeast 212 244 2,800 -387 Descending Boston Center
Sun 05:22:12 PM 42.1975 -71.7953 North 206 237 2,700 -295 Descending Boston Center
Sun 05:22:51 PM 42.2272 -71.8008 352° North 175 201 2,500 -492 Descending Boston Center
Sun 05:23:13 PM 42.2439 -71.8019 357° North 168 193 2,200 -590 Descending Boston Center
Sun 05:23:52 PM 42.2606 -71.8181 324° Northwest 126 145 1,900 -581 Descending Boston Center
Sun 05:24:15 PM 42.2642 -71.8358 285° West 138 159 1,600 -500 Descending Boston Center
Sun 05:24:52 PM 42.2661 -71.8575 277° West 120 138 1,400 -194 Descending Boston Center
Sun 05:25:17 PM 42.2686 -71.8897 276° West 136 157 1,400  Level Boston Center

Login

Don't have an account? Register now (free) for customized features, flight alerts, and more!